Time;durP1;ratioP1;P1;durP2;ratioP2;P2;SDS_P1;SDS_P2;PMS_P1;PMS_P2;Temp;Humidity;BMP_temperature;BMP_pressure;BME280_temperature;BME280_humidity;BME280_pressure;Samples;Min_cycle;Max_cycle;Signal;HPM_P1;HPM_P2
2021/08/04 00:02:22;;;;;;;;;;;15.20;99.90;;;;;;5093680;28;19918;-72
2021/08/04 00:04:48;;;;;;;;;;;15.10;99.90;;;;;;5075750;28;19908;-72
2021/08/04 00:07:13;;;;;;;;;;;15.10;99.90;;;;;;5075642;28;19908;-72
2021/08/04 00:09:39;;;;;;;;;;;15.00;99.90;;;;;;5096781;28;19915;-72
2021/08/04 00:12:04;;;;;;;;;;;15.00;99.90;;;;;;5097343;28;19909;-72
2021/08/04 00:14:30;;;;;;;;;;;15.00;99.90;;;;;;5097275;28;20273;-72
2021/08/04 00:16:55;;;;;;;;;;;15.00;99.90;;;;;;5097234;28;20273;-72
2021/08/04 00:19:21;;;;;;;;;;;15.00;99.90;;;;;;5096898;28;19908;-72
2021/08/04 00:21:46;;;;;;;;;;;15.00;99.90;;;;;;5096778;28;19966;-72
2021/08/04 00:24:12;;;;;;;;;;;15.00;99.90;;;;;;5096839;28;19933;-72
2021/08/04 00:26:37;;;;;;;;;;;15.00;99.90;;;;;;5078640;28;19908;-72
2021/08/04 00:29:03;;;;;;;;;;;15.00;99.90;;;;;;5078883;28;19931;-72
2021/08/04 00:31:28;;;;;;;;;;;15.00;99.90;;;;;;5096947;28;19908;-72
2021/08/04 00:33:54;;;;;;;;;;;14.90;99.90;;;;;;5078821;28;19915;-72
2021/08/04 00:36:19;;;;;;;;;;;15.00;99.90;;;;;;5078829;28;19909;-72
2021/08/04 00:38:45;;;;;;;;;;;15.00;99.90;;;;;;5097152;28;19908;-72
2021/08/04 00:41:10;;;;;;;;;;;14.90;99.90;;;;;;5078285;28;20335;-72
2021/08/04 00:43:36;;;;;;;;;;;14.90;99.90;;;;;;5096465;28;19908;-72
2021/08/04 00:46:01;;;;;;;;;;;14.80;99.90;;;;;;5096398;28;20347;-72
2021/08/04 00:48:27;;;;;;;;;;;14.80;99.90;;;;;;5061594;28;19908;-72
2021/08/04 00:50:53;;;;;;;;;;;14.80;99.90;;;;;;5096630;28;20488;-72
2021/08/04 00:55:57;;;;;;;;;;;14.70;99.90;;;;;;5092377;27;19913;-71
2021/08/04 00:58:27;;;;;;;;;;;14.70;99.90;;;;;;5107146;28;19966;-71
2021/08/04 01:00:59;;;;;;;;;;;14.70;99.90;;;;;;5091406;28;19908;-71
2021/08/04 01:03:28;;;;;;;;;;;14.80;99.90;;;;;;5091771;28;19916;-73
2021/08/04 01:05:55;;;;;;;;;;;14.80;99.90;;;;;;5090604;28;19908;-71
2021/08/04 01:08:24;;;;;;;;;;;14.80;99.90;;;;;;5091555;28;19910;-72
2021/08/04 01:10:51;;;;;;;;;;;14.80;99.90;;;;;;5091493;28;19909;-72
2021/08/04 01:13:21;;;;;;;;;;;14.80;99.90;;;;;;5089913;28;19965;-72
2021/08/04 01:15:50;;;;;;;;;;;14.80;99.90;;;;;;5091648;28;19912;-72
2021/08/04 01:18:18;;;;;;;;;;;14.90;99.90;;;;;;5089798;28;20378;-72
2021/08/04 01:20:44;;;;;;;;;;;14.80;99.90;;;;;;5091038;28;19912;-72
2021/08/04 01:23:14;;;;;;;;;;;14.90;99.90;;;;;;5124093;28;19908;-72
2021/08/04 01:25:43;;;;;;;;;;;14.90;99.90;;;;;;5091208;28;19914;-72
2021/08/04 01:28:17;;;;;;;;;;;14.90;99.90;;;;;;5089616;28;19960;-72
2021/08/04 01:30:43;;;;;;;;;;;14.90;99.90;;;;;;5089581;28;20281;-72
2021/08/04 01:33:10;;;;;;;;;;;14.90;99.90;;;;;;5091092;28;19908;-71
2021/08/04 01:35:36;;;;;;;;;;;14.90;99.90;;;;;;5090966;28;19913;-72
2021/08/04 01:38:01;;;;;;;;;;;14.80;99.90;;;;;;5090991;28;20371;-72
2021/08/04 01:40:27;;;;;;;;;;;14.80;99.90;;;;;;5123510;28;20284;-72
2021/08/04 01:42:53;;;;;;;;;;;14.90;99.90;;;;;;5090624;28;19947;-72
2021/08/04 01:45:19;;;;;;;;;;;14.90;99.90;;;;;;5090848;28;20388;-72
2021/08/04 01:47:44;;;;;;;;;;;14.80;99.90;;;;;;5090862;28;19909;-72
2021/08/04 01:50:10;;;;;;;;;;;14.90;99.90;;;;;;5090816;28;20323;-72
2021/08/04 01:52:36;;;;;;;;;;;14.80;99.90;;;;;;5090979;28;20334;-72
2021/08/04 01:55:02;;;;;;;;;;;14.80;99.90;;;;;;5103492;28;19920;-72
2021/08/04 01:57:27;;;;;;;;;;;14.80;99.90;;;;;;5092431;28;19912;-72
2021/08/04 01:59:53;;;;;;;;;;;14.70;99.90;;;;;;5092951;28;20293;-71
2021/08/04 02:02:22;;;;;;;;;;;14.70;99.90;;;;;;5110863;28;20041;-72
2021/08/04 02:04:48;;;;;;;;;;;14.70;99.90;;;;;;5110819;28;20049;-72
2021/08/04 02:07:24;;;;;;;;;;;14.70;99.90;;;;;;5079050;28;19943;-71
2021/08/04 02:09:51;;;;;;;;;;;14.70;99.90;;;;;;5096862;28;19957;-72
2021/08/04 02:12:17;;;;;;;;;;;14.70;99.90;;;;;;5096831;28;19973;-72
2021/08/04 02:14:47;;;;;;;;;;;14.70;99.90;;;;;;5078532;28;20315;-72
2021/08/04 02:17:33;;;;;;;;;;;14.70;99.90;;;;;;5096730;28;19915;-72
2021/08/04 02:20:18;;;;;;;;;;;14.70;99.90;;;;;;5078397;28;19940;-72
2021/08/04 02:22:47;;;;;;;;;;;14.70;99.90;;;;;;5078377;28;19912;-72
2021/08/04 02:25:15;;;;;;;;;;;14.60;99.90;;;;;;5096573;28;19908;-71
2021/08/04 02:27:41;;;;;;;;;;;14.60;99.90;;;;;;5078988;28;19908;-71
2021/08/04 02:30:07;;;;;;;;;;;14.60;99.90;;;;;;5061688;28;19960;-72
2021/08/04 02:32:34;;;;;;;;;;;14.60;99.90;;;;;;5096458;28;19912;-72
2021/08/04 02:34:59;;;;;;;;;;;14.60;99.90;;;;;;5061472;28;19955;-71
2021/08/04 02:37:25;;;;;;;;;;;14.60;99.90;;;;;;5096385;28;20361;-72
2021/08/04 02:39:51;;;;;;;;;;;14.60;99.90;;;;;;5096292;28;19908;-71
2021/08/04 02:42:17;;;;;;;;;;;14.50;99.90;;;;;;5078161;28;19912;-71
2021/08/04 02:44:43;;;;;;;;;;;14.50;99.90;;;;;;5096195;28;19908;-72
2021/08/04 02:47:08;;;;;;;;;;;14.40;99.90;;;;;;5096075;28;19914;-72
2021/08/04 02:49:34;;;;;;;;;;;14.30;99.90;;;;;;5096107;28;19908;-72
2021/08/04 02:52:00;;;;;;;;;;;14.30;99.90;;;;;;5096349;28;20391;-72
2021/08/04 02:54:25;;;;;;;;;;;14.30;99.90;;;;;;5077781;28;20387;-72
2021/08/04 02:56:51;;;;;;;;;;;14.30;99.90;;;;;;5095977;28;19962;-72
2021/08/04 02:59:16;;;;;;;;;;;14.30;99.90;;;;;;5096215;28;19940;-72
2021/08/04 03:01:42;;;;;;;;;;;14.30;99.90;;;;;;5095884;28;20381;-72
2021/08/04 03:04:07;;;;;;;;;;;14.30;99.90;;;;;;5077698;28;20373;-71
2021/08/04 03:06:33;;;;;;;;;;;14.30;99.90;;;;;;5095790;28;20422;-71
2021/08/04 03:08:58;;;;;;;;;;;14.20;99.90;;;;;;5096300;28;19912;-72
2021/08/04 03:11:24;;;;;;;;;;;14.30;99.90;;;;;;5096228;28;19916;-72
2021/08/04 03:13:49;;;;;;;;;;;14.30;99.90;;;;;;5096096;28;19916;-72
2021/08/04 03:16:14;;;;;;;;;;;14.40;99.90;;;;;;5096178;28;19908;-72
2021/08/04 03:18:40;;;;;;;;;;;14.50;99.90;;;;;;5094882;28;20354;-72
2021/08/04 03:21:05;;;;;;;;;;;14.50;99.90;;;;;;5061243;28;20273;-72
2021/08/04 03:23:31;;;;;;;;;;;14.50;99.90;;;;;;5095726;28;20003;-72
2021/08/04 03:25:56;;;;;;;;;;;14.60;99.90;;;;;;5095392;28;19912;-72
2021/08/04 03:28:22;;;;;;;;;;;14.60;99.90;;;;;;5095616;28;19915;-72
2021/08/04 03:30:47;;;;;;;;;;;14.70;99.90;;;;;;5095594;28;19969;-72
2021/08/04 03:33:13;;;;;;;;;;;14.60;99.90;;;;;;5095277;28;19909;-71
2021/08/04 03:35:38;;;;;;;;;;;14.70;99.90;;;;;;5095401;28;19912;-72
2021/08/04 03:38:04;;;;;;;;;;;14.60;99.90;;;;;;5095422;28;19908;-72
2021/08/04 03:40:29;;;;;;;;;;;14.70;99.90;;;;;;5095064;28;20369;-72
2021/08/04 03:42:55;;;;;;;;;;;14.70;99.90;;;;;;5076963;28;20326;-72
2021/08/04 03:45:20;;;;;;;;;;;14.60;99.90;;;;;;5095526;28;19908;-72
2021/08/04 03:47:46;;;;;;;;;;;14.60;99.90;;;;;;5095521;28;19908;-72
2021/08/04 03:50:11;;;;;;;;;;;14.60;99.90;;;;;;5077118;28;19908;-71
2021/08/04 03:52:39;;;;;;;;;;;14.60;99.90;;;;;;5095440;28;19912;-72
2021/08/04 03:55:05;;;;;;;;;;;14.50;99.90;;;;;;5073061;28;19996;-71
2021/08/04 03:57:30;;;;;;;;;;;14.50;99.90;;;;;;5074530;28;19990;-72
2021/08/04 03:59:56;;;;;;;;;;;14.50;99.90;;;;;;5107529;28;19908;-72
2021/08/04 04:02:21;;;;;;;;;;;14.40;99.90;;;;;;5074945;28;20349;-73
2021/08/04 04:04:47;;;;;;;;;;;14.50;99.90;;;;;;5074952;28;19920;-71
2021/08/04 04:07:13;;;;;;;;;;;14.40;99.90;;;;;;5107466;28;19915;-72
2021/08/04 04:09:38;;;;;;;;;;;14.40;99.90;;;;;;5107227;28;19909;-72
2021/08/04 04:12:04;;;;;;;;;;;14.40;99.90;;;;;;5107294;28;19947;-73
2021/08/04 04:14:29;;;;;;;;;;;14.40;99.90;;;;;;5072909;28;20391;-71
2021/08/04 04:16:55;;;;;;;;;;;14.50;99.90;;;;;;5074248;28;20313;-73
2021/08/04 04:19:20;;;;;;;;;;;14.40;99.90;;;;;;5074188;28;19947;-71
2021/08/04 04:21:46;;;;;;;;;;;14.50;99.90;;;;;;5106839;28;19908;-72
2021/08/04 04:24:11;;;;;;;;;;;14.50;99.90;;;;;;5107125;28;19908;-72
2021/08/04 04:26:37;;;;;;;;;;;14.50;99.90;;;;;;5074397;28;20010;-72
2021/08/04 04:29:03;;;;;;;;;;;14.60;99.90;;;;;;5072562;28;19909;-72
2021/08/04 04:31:28;;;;;;;;;;;14.60;99.90;;;;;;5106849;28;19908;-72
2021/08/04 04:33:54;;;;;;;;;;;14.60;99.90;;;;;;5074263;28;19939;-72
2021/08/04 04:36:19;;;;;;;;;;;14.60;99.90;;;;;;5074268;28;19999;-72
2021/08/04 04:38:45;;;;;;;;;;;14.60;99.90;;;;;;5074512;28;20380;-72
2021/08/04 04:41:10;;;;;;;;;;;14.60;99.90;;;;;;5073919;28;19908;-72
2021/08/04 04:43:38;;;;;;;;;;;14.70;99.90;;;;;;5106535;28;19908;-72
2021/08/04 04:46:03;;;;;;;;;;;14.70;99.90;;;;;;5073886;28;19908;-72
2021/08/04 04:48:29;;;;;;;;;;;14.80;99.90;;;;;;5073872;28;19908;-72
2021/08/04 04:50:54;;;;;;;;;;;14.80;99.90;;;;;;5074133;28;19909;-72
2021/08/04 04:53:20;;;;;;;;;;;14.90;99.90;;;;;;5074084;28;19908;-72
2021/08/04 04:55:45;;;;;;;;;;;14.90;99.90;;;;;;5092732;28;19920;-72
2021/08/04 04:58:11;;;;;;;;;;;15.00;99.90;;;;;;5094498;28;19912;-72
2021/08/04 05:00:36;;;;;;;;;;;15.00;99.90;;;;;;5076506;28;20418;-72
2021/08/04 05:03:02;;;;;;;;;;;15.10;99.90;;;;;;5094455;28;19908;-72
2021/08/04 05:05:27;;;;;;;;;;;15.20;99.90;;;;;;5076173;28;19915;-72
2021/08/04 05:07:53;;;;;;;;;;;15.20;99.90;;;;;;5076149;28;19995;-72
2021/08/04 05:10:18;;;;;;;;;;;15.30;99.90;;;;;;5094120;28;20292;-72
2021/08/04 05:12:44;;;;;;;;;;;15.20;99.90;;;;;;5094118;28;20273;-72
2021/08/04 05:15:09;;;;;;;;;;;15.30;99.90;;;;;;5094012;28;19935;-73
2021/08/04 05:17:35;;;;;;;;;;;15.40;99.90;;;;;;5093805;28;19908;-73
2021/08/04 05:20:00;;;;;;;;;;;15.40;99.90;;;;;;5075747;28;20348;-72
2021/08/04 05:22:26;;;;;;;;;;;15.50;99.90;;;;;;5076213;28;19957;-72
2021/08/04 05:24:51;;;;;;;;;;;15.60;99.90;;;;;;5094006;28;19908;-72
2021/08/04 05:27:17;;;;;;;;;;;15.60;99.90;;;;;;5093970;28;20246;-72
2021/08/04 05:29:42;;;;;;;;;;;15.50;99.90;;;;;;5093976;28;20323;-72
2021/08/04 05:32:08;;;;;;;;;;;15.50;99.90;;;;;;5076145;28;19908;-72
2021/08/04 05:34:33;;;;;;;;;;;15.60;99.90;;;;;;5075609;28;19912;-72
2021/08/04 05:36:59;;;;;;;;;;;15.50;99.90;;;;;;5093605;28;20337;-72
2021/08/04 05:39:24;;;;;;;;;;;15.60;99.90;;;;;;5093864;28;20289;-72
2021/08/04 05:41:49;;;;;;;;;;;15.60;99.90;;;;;;5095827;28;20006;-72
2021/08/04 05:44:15;;;;;;;;;;;15.70;99.90;;;;;;5097639;28;19915;-72
2021/08/04 05:46:40;;;;;;;;;;;15.80;99.90;;;;;;5097906;28;20384;-72
2021/08/04 05:49:06;;;;;;;;;;;15.80;99.90;;;;;;5079389;28;20368;-73
2021/08/04 05:51:31;;;;;;;;;;;15.80;99.90;;;;;;5079305;28;19909;-73
2021/08/04 05:53:57;;;;;;;;;;;15.90;99.90;;;;;;5097214;28;19982;-72
2021/08/04 05:56:22;;;;;;;;;;;16.00;99.90;;;;;;5079142;28;19943;-72
2021/08/04 05:58:48;;;;;;;;;;;16.10;99.90;;;;;;5062073;28;19930;-72
2021/08/04 06:01:13;;;;;;;;;;;16.20;99.90;;;;;;5097279;28;19934;-72
2021/08/04 06:03:39;;;;;;;;;;;16.10;99.90;;;;;;5078514;28;19913;-72
2021/08/04 06:06:04;;;;;;;;;;;16.10;99.90;;;;;;5114075;28;19915;-72
2021/08/04 06:08:30;;;;;;;;;;;16.10;99.90;;;;;;5099314;28;19908;-72
2021/08/04 06:10:56;;;;;;;;;;;16.00;99.90;;;;;;5098873;28;19994;-72
2021/08/04 06:13:21;;;;;;;;;;;16.00;99.90;;;;;;5098745;28;19954;-72
2021/08/04 06:15:46;;;;;;;;;;;16.00;99.90;;;;;;5104042;28;19980;-72
2021/08/04 06:18:12;;;;;;;;;;;16.10;99.90;;;;;;5100727;28;20033;-73
2021/08/04 06:20:37;;;;;;;;;;;16.30;99.90;;;;;;5097709;28;19915;-73
2021/08/04 06:23:03;;;;;;;;;;;16.30;99.90;;;;;;5096417;28;20434;-72
2021/08/04 06:25:28;;;;;;;;;;;16.20;99.90;;;;;;5097042;28;20357;-72
2021/08/04 06:27:54;;;;;;;;;;;16.20;99.90;;;;;;5078292;28;19908;-72
2021/08/04 06:30:20;;;;;;;;;;;16.40;99.90;;;;;;5078305;28;19943;-72
2021/08/04 06:32:46;;;;;;;;;;;16.50;99.90;;;;;;5096916;28;19908;-72
2021/08/04 06:35:11;;;;;;;;;;;16.80;99.90;;;;;;5096303;28;20460;-72
2021/08/04 06:37:37;;;;;;;;;;;16.80;99.90;;;;;;5096427;28;19912;-72
2021/08/04 06:40:03;;;;;;;;;;;16.70;99.90;;;;;;5096368;28;19912;-68
2021/08/04 06:42:28;;;;;;;;;;;16.70;99.90;;;;;;5096728;28;19908;-69
2021/08/04 06:44:54;;;;;;;;;;;16.70;99.90;;;;;;5075781;28;20272;-69
2021/08/04 06:47:19;;;;;;;;;;;16.70;99.90;;;;;;5105129;28;20423;-69
2021/08/04 06:49:45;;;;;;;;;;;16.80;99.90;;;;;;5086104;28;20258;-69
2021/08/04 06:52:10;;;;;;;;;;;16.80;99.90;;;;;;5094874;28;19913;-69
2021/08/04 06:54:36;;;;;;;;;;;16.90;99.90;;;;;;5090228;28;19965;-69
2021/08/04 06:57:01;;;;;;;;;;;17.00;99.90;;;;;;5095182;28;19947;-68
2021/08/04 06:59:27;;;;;;;;;;;17.20;99.90;;;;;;5073123;28;19916;-68
2021/08/04 07:01:52;;;;;;;;;;;17.40;99.90;;;;;;5076532;28;19912;-68
2021/08/04 07:04:18;;;;;;;;;;;17.70;99.90;;;;;;5089846;28;20455;-68
2021/08/04 07:06:51;;;;;;;;;;;18.50;99.90;;;;;;5093071;28;19923;-68
2021/08/04 07:09:17;;;;;;;;;;;19.00;99.90;;;;;;5077606;28;19915;-68
2021/08/04 07:11:42;;;;;;;;;;;19.20;99.90;;;;;;5071112;28;19916;-68
2021/08/04 07:14:08;;;;;;;;;;;19.50;99.90;;;;;;5086227;28;19924;-68
2021/08/04 07:16:33;;;;;;;;;;;19.70;99.90;;;;;;5072486;28;19912;-68
2021/08/04 07:18:59;;;;;;;;;;;21.20;99.90;;;;;;5057141;28;20012;-66
2021/08/04 07:21:24;;;;;;;;;;;21.90;99.90;;;;;;5076792;28;19966;-66
2021/08/04 07:24:01;;;;;;;;;;;22.30;99.90;;;;;;5075127;28;19999;-66
2021/08/04 07:26:27;;;;;;;;;;;23.40;99.90;;;;;;5073824;28;19948;-67
2021/08/04 07:28:52;;;;;;;;;;;23.50;99.90;;;;;;5091051;28;20369;-67
2021/08/04 07:31:18;;;;;;;;;;;23.80;99.90;;;;;;5075828;28;20266;-67
2021/08/04 07:33:43;;;;;;;;;;;24.40;99.90;;;;;;5075047;28;19977;-67
2021/08/04 07:36:11;;;;;;;;;;;24.80;99.90;;;;;;5085113;28;19948;-67
2021/08/04 07:38:38;;;;;;;;;;;24.80;99.90;;;;;;5094766;28;19909;-66
2021/08/04 07:41:04;;;;;;;;;;;24.60;99.90;;;;;;5067555;28;19913;-66
2021/08/04 07:43:30;;;;;;;;;;;23.80;99.90;;;;;;5072929;28;19908;-66
2021/08/04 07:45:56;;;;;;;;;;;23.60;99.90;;;;;;5086382;28;20289;-67
2021/08/04 07:48:21;;;;;;;;;;;24.00;99.90;;;;;;5083208;28;20393;-66
2021/08/04 07:50:46;;;;;;;;;;;24.80;99.90;;;;;;5076912;28;20013;-67
2021/08/04 07:53:12;;;;;;;;;;;25.50;99.90;;;;;;5073180;28;20466;-67
2021/08/04 07:55:37;;;;;;;;;;;26.50;99.90;;;;;;5056300;28;19990;-68
2021/08/04 07:58:03;;;;;;;;;;;26.40;99.90;;;;;;5083211;28;19919;-67
2021/08/04 08:00:28;;;;;;;;;;;25.30;99.90;;;;;;5072398;28;19915;-67
2021/08/04 08:02:54;;;;;;;;;;;25.40;99.90;;;;;;5075029;28;19912;-68
2021/08/04 08:05:19;;;;;;;;;;;25.40;99.90;;;;;;5073229;28;19909;-67
2021/08/04 08:07:46;;;;;;;;;;;25.30;99.90;;;;;;5077736;28;19934;-68
2021/08/04 08:10:12;;;;;;;;;;;24.90;99.90;;;;;;5084534;28;19913;-67
2021/08/04 08:12:37;;;;;;;;;;;24.80;99.90;;;;;;5074172;28;19912;-68
2021/08/04 08:15:03;;;;;;;;;;;24.60;99.90;;;;;;5072754;28;19912;-67
2021/08/04 08:17:28;;;;;;;;;;;24.70;99.90;;;;;;5093817;28;19955;-67
2021/08/04 08:19:54;;;;;;;;;;;24.40;99.90;;;;;;5058376;28;20369;-67
2021/08/04 08:22:19;;;;;;;;;;;24.60;99.90;;;;;;5089126;28;20366;-68
2021/08/04 08:24:45;;;;;;;;;;;24.80;99.90;;;;;;5093189;28;19937;-68
2021/08/04 08:27:10;;;;;;;;;;;24.40;99.90;;;;;;5092998;28;20289;-68
2021/08/04 08:29:36;;;;;;;;;;;24.80;99.90;;;;;;5094164;28;19994;-68
2021/08/04 08:32:01;;;;;;;;;;;25.70;99.90;;;;;;5074193;28;19993;-68
2021/08/04 08:34:27;;;;;;;;;;;25.60;99.90;;;;;;5074972;28;19920;-68
2021/08/04 08:36:52;;;;;;;;;;;25.70;99.90;;;;;;5078779;28;19912;-68
2021/08/04 08:39:18;;;;;;;;;;;25.20;99.90;;;;;;5074500;28;19916;-68
2021/08/04 08:41:44;;;;;;;;;;;24.60;99.90;;;;;;5073738;28;19912;-71
2021/08/04 08:44:11;;;;;;;;;;;23.90;99.90;;;;;;5091951;28;19908;-72
2021/08/04 08:46:36;;;;;;;;;;;24.40;99.90;;;;;;5093877;28;19909;-72
2021/08/04 08:49:02;;;;;;;;;;;25.40;99.90;;;;;;5075686;28;19908;-71
2021/08/04 08:51:28;;;;;;;;;;;26.20;99.90;;;;;;5073563;28;19923;-72
2021/08/04 08:53:54;;;;;;;;;;;26.90;99.90;;;;;;5073154;28;19923;-72
2021/08/04 08:56:19;;;;;;;;;;;27.10;99.90;;;;;;5072267;28;19919;-72
2021/08/04 08:58:45;;;;;;;;;;;26.70;99.90;;;;;;5073397;28;19953;-72
2021/08/04 09:01:11;;;;;;;;;;;26.20;99.90;;;;;;5085542;28;20400;-72
2021/08/04 09:03:36;;;;;;;;;;;26.10;99.90;;;;;;5093444;28;19912;-72
2021/08/04 09:06:04;;;;;;;;;;;25.40;99.90;;;;;;5092946;28;19970;-70
2021/08/04 09:08:33;;;;;;;;;;;25.30;99.90;;;;;;5094164;28;19912;-70
2021/08/04 09:11:09;;;;;;;;;;;24.50;99.90;;;;;;5092037;28;20269;-73
2021/08/04 09:13:35;;;;;;;;;;;24.30;99.90;;;;;;5092001;28;19973;-71
2021/08/04 09:16:06;;;;;;;;;;;24.20;99.90;;;;;;5092172;28;19916;-71
2021/08/04 09:18:40;;;;;;;;;;;24.40;99.90;;;;;;5071685;28;19912;-71
2021/08/04 09:21:05;;;;;;;;;;;24.60;99.90;;;;;;5076363;28;19958;-72
2021/08/04 09:23:31;;;;;;;;;;;25.70;99.90;;;;;;5084429;28;19912;-72
2021/08/04 09:26:13;;;;;;;;;;;25.80;99.90;;;;;;5097470;28;19961;-72
2021/08/04 09:28:56;;;;;;;;;;;24.50;99.90;;;;;;5095231;28;19912;-71
2021/08/04 09:31:22;;;;;;;;;;;25.20;99.90;;;;;;5096743;28;19911;-70
2021/08/04 09:33:48;;;;;;;;;;;25.60;99.90;;;;;;5096556;28;19917;-72
2021/08/04 09:36:28;;;;;;;;;;;24.40;99.90;;;;;;5073464;28;19919;-72
2021/08/04 09:39:03;;;;;;;;;;;24.70;99.90;;;;;;5097241;28;19908;-71
2021/08/04 09:41:28;;;;;;;;;;;24.70;99.90;;;;;;5097202;28;19908;-71
2021/08/04 09:44:02;;;;;;;;;;;25.20;99.90;;;;;;5096734;28;19920;-72
2021/08/04 09:46:28;;;;;;;;;;;25.40;99.90;;;;;;5097145;28;19962;-72
2021/08/04 09:48:54;;;;;;;;;;;26.10;99.90;;;;;;5074875;28;19921;-71
2021/08/04 09:51:21;;;;;;;;;;;26.70;99.90;;;;;;5096699;28;20010;-71
2021/08/04 09:53:49;;;;;;;;;;;27.40;99.90;;;;;;5090738;28;19920;-71
2021/08/04 09:56:17;;;;;;;;;;;28.20;99.90;;;;;;5076586;28;20401;-71
2021/08/04 09:58:45;;;;;;;;;;;26.80;99.90;;;;;;5075739;28;19912;-71
2021/08/04 10:01:12;;;;;;;;;;;26.00;99.90;;;;;;5076625;28;19915;-71
2021/08/04 10:03:37;;;;;;;;;;;25.70;99.90;;;;;;5102075;28;19961;-71
2021/08/04 10:06:03;;;;;;;;;;;24.60;99.90;;;;;;5096800;28;19908;-71
2021/08/04 10:08:28;;;;;;;;;;;24.20;99.90;;;;;;5095500;28;19912;-71
2021/08/04 10:10:56;;;;;;;;;;;23.90;99.90;;;;;;5096667;28;19909;-71
2021/08/04 10:13:27;;;;;;;;;;;23.90;99.90;;;;;;5063036;28;19962;-71
2021/08/04 10:15:57;;;;;;;;;;;24.30;99.90;;;;;;5094471;28;19963;-71
2021/08/04 10:18:25;;;;;;;;;;;23.60;99.90;;;;;;5095434;28;19940;-72
2021/08/04 10:20:52;;;;;;;;;;;23.30;99.90;;;;;;5078244;28;20012;-71
2021/08/04 10:23:18;;;;;;;;;;;23.20;99.90;;;;;;5082262;28;19912;-71
2021/08/04 10:25:44;;;;;;;;;;;23.00;99.90;;;;;;5086938;28;19913;-71
2021/08/04 10:28:10;;;;;;;;;;;23.20;99.90;;;;;;5092725;28;19920;-71
2021/08/04 10:30:37;;;;;;;;;;;23.60;99.90;;;;;;5095420;28;19995;-71
2021/08/04 10:33:04;;;;;;;;;;;23.70;99.90;;;;;;5093222;28;20024;-71
2021/08/04 10:35:29;;;;;;;;;;;23.20;99.90;;;;;;5096142;28;20357;-71
2021/08/04 10:37:55;;;;;;;;;;;24.00;99.90;;;;;;5095006;28;19920;-71
2021/08/04 10:40:23;;;;;;;;;;;25.80;99.90;;;;;;5093540;28;19912;-71
2021/08/04 10:42:49;;;;;;;;;;;27.10;99.90;;;;;;5094647;28;19926;-72
2021/08/04 10:48:18;;;;;;;;;;;26.70;99.90;;;;;;5088166;27;19923;-71
2021/08/04 10:51:03;;;;;;;;;;;26.20;99.90;;;;;;5103342;28;19913;-71
2021/08/04 10:53:29;;;;;;;;;;;26.30;99.90;;;;;;5070108;28;19923;-71
2021/08/04 10:55:55;;;;;;;;;;;24.90;99.90;;;;;;5079878;28;20408;-68
2021/08/04 10:58:21;;;;;;;;;;;24.80;99.90;;;;;;5069915;28;19913;-68
2021/08/04 11:00:47;;;;;;;;;;;24.70;99.90;;;;;;5069383;28;20309;-68
2021/08/04 11:03:33;;;;;;;;;;;25.00;99.90;;;;;;5070539;28;19909;-68
2021/08/04 11:06:02;;;;;;;;;;;25.40;99.90;;;;;;5070551;28;19917;-68
2021/08/04 11:08:28;;;;;;;;;;;25.10;99.90;;;;;;5070252;28;19912;-68
2021/08/04 11:10:53;;;;;;;;;;;24.30;99.90;;;;;;5080428;28;19982;-68
2021/08/04 11:13:38;;;;;;;;;;;24.20;99.90;;;;;;5069971;28;19909;-68
2021/08/04 11:16:24;;;;;;;;;;;24.50;99.90;;;;;;5059873;28;20392;-68
2021/08/04 11:19:06;;;;;;;;;;;24.30;99.90;;;;;;5068463;28;19952;-70
2021/08/04 11:21:32;;;;;;;;;;;24.10;99.90;;;;;;5070196;28;19953;-68
2021/08/04 11:23:59;;;;;;;;;;;23.70;99.90;;;;;;5070173;28;19913;-68
2021/08/04 11:26:28;;;;;;;;;;;23.70;99.90;;;;;;5069184;28;20282;-68
2021/08/04 11:28:53;;;;;;;;;;;23.80;99.90;;;;;;5070248;28;19919;-68
2021/08/04 11:31:19;;;;;;;;;;;23.60;99.90;;;;;;5069811;28;19909;-69
2021/08/04 11:33:45;;;;;;;;;;;23.10;99.90;;;;;;5069566;28;19917;-69
2021/08/04 11:36:12;;;;;;;;;;;23.30;99.90;;;;;;5084919;28;20350;-69
2021/08/04 11:38:40;;;;;;;;;;;23.70;99.90;;;;;;5070023;28;19940;-68
2021/08/04 11:41:14;;;;;;;;;;;23.50;99.90;;;;;;5069813;28;19939;-69
2021/08/04 11:43:39;;;;;;;;;;;23.70;99.90;;;;;;5069214;28;19909;-69
2021/08/04 11:46:05;;;;;;;;;;;23.60;99.90;;;;;;5073738;28;20034;-69
2021/08/04 11:48:47;;;;;;;;;;;23.60;99.90;;;;;;5055330;28;20325;-69
2021/08/04 11:51:12;;;;;;;;;;;24.50;99.90;;;;;;5068813;28;19916;-70
2021/08/04 11:53:41;;;;;;;;;;;25.30;99.90;;;;;;5082559;28;19912;-70
2021/08/04 11:56:07;;;;;;;;;;;25.20;99.90;;;;;;5089932;28;19909;-70
2021/08/04 11:58:32;;;;;;;;;;;25.50;99.90;;;;;;5080399;28;19917;-70
2021/08/04 12:01:18;;;;;;;;;;;25.10;99.90;;;;;;5067970;28;20421;-69
2021/08/04 12:03:43;;;;;;;;;;;24.70;99.90;;;;;;5075777;28;20007;-69
2021/08/04 12:06:16;;;;;;;;;;;24.50;99.90;;;;;;5075407;28;20011;-68
2021/08/04 12:08:41;;;;;;;;;;;24.80;99.90;;;;;;5076056;28;20357;-69
2021/08/04 12:11:07;;;;;;;;;;;25.00;99.90;;;;;;5074386;28;19912;-69
2021/08/04 12:13:32;;;;;;;;;;;24.70;99.90;;;;;;5057986;28;19912;-69
2021/08/04 12:15:59;;;;;;;;;;;24.80;99.90;;;;;;5040571;28;19909;-69
2021/08/04 12:18:25;;;;;;;;;;;25.00;99.90;;;;;;5075099;28;19919;-69
2021/08/04 12:20:52;;;;;;;;;;;25.10;99.90;;;;;;5074897;28;20003;-69
2021/08/04 12:23:22;;;;;;;;;;;24.80;99.90;;;;;;5075236;28;19979;-69
2021/08/04 12:25:56;;;;;;;;;;;24.50;99.90;;;;;;5075598;28;19919;-69
2021/08/04 12:28:27;;;;;;;;;;;24.30;99.90;;;;;;5075488;28;19912;-69
2021/08/04 12:30:52;;;;;;;;;;;24.30;99.90;;;;;;5075557;28;19908;-69
2021/08/04 12:33:20;;;;;;;;;;;24.10;99.90;;;;;;5075263;28;19998;-69
2021/08/04 12:36:01;;;;;;;;;;;23.80;99.90;;;;;;5075636;28;19912;-70
2021/08/04 12:38:27;;;;;;;;;;;24.10;99.90;;;;;;5075394;28;20328;-70
2021/08/04 12:40:54;;;;;;;;;;;23.60;99.90;;;;;;5075236;28;19909;-69
2021/08/04 12:43:21;;;;;;;;;;;23.70;99.90;;;;;;5075140;28;19912;-69
2021/08/04 12:45:48;;;;;;;;;;;23.70;99.90;;;;;;5075032;28;19912;-69
2021/08/04 12:48:15;;;;;;;;;;;23.70;99.90;;;;;;5074873;28;19916;-69
2021/08/04 12:51:00;;;;;;;;;;;23.60;99.90;;;;;;5075290;28;19913;-69
2021/08/04 12:53:35;;;;;;;;;;;23.80;99.90;;;;;;5074076;28;19938;-69
2021/08/04 12:56:03;;;;;;;;;;;24.30;99.90;;;;;;5074867;28;19924;-69
2021/08/04 12:58:49;;;;;;;;;;;24.40;99.90;;;;;;5074824;28;20396;-69
2021/08/04 13:01:19;;;;;;;;;;;23.90;99.90;;;;;;5074455;28;19916;-69
2021/08/04 13:03:44;;;;;;;;;;;23.50;99.90;;;;;;5052115;28;19913;-69
2021/08/04 13:06:10;;;;;;;;;;;23.60;99.90;;;;;;5053296;28;19940;-69
2021/08/04 13:08:37;;;;;;;;;;;23.40;99.90;;;;;;5063312;28;19959;-69
2021/08/04 13:11:02;;;;;;;;;;;23.90;99.90;;;;;;5073938;28;19908;-69
2021/08/04 13:13:28;;;;;;;;;;;24.50;99.90;;;;;;5074250;28;19923;-69
2021/08/04 13:15:54;;;;;;;;;;;24.80;99.90;;;;;;5074235;28;19935;-69
2021/08/04 13:18:20;;;;;;;;;;;25.20;99.90;;;;;;5073198;28;19916;-69
2021/08/04 13:20:46;;;;;;;;;;;24.60;99.90;;;;;;5072835;28;19920;-69
2021/08/04 13:23:13;;;;;;;;;;;24.20;99.90;;;;;;5076733;28;19916;-69
2021/08/04 13:25:44;;;;;;;;;;;24.00;99.90;;;;;;5073533;28;19919;-69
2021/08/04 13:28:12;;;;;;;;;;;24.30;99.90;;;;;;5074700;28;19947;-69
2021/08/04 13:30:39;;;;;;;;;;;24.60;99.90;;;;;;5074346;28;20404;-70
2021/08/04 13:33:06;;;;;;;;;;;24.60;99.90;;;;;;5085862;28;19915;-69
2021/08/04 13:35:32;;;;;;;;;;;24.80;99.90;;;;;;5082931;28;19966;-69
2021/08/04 13:37:58;;;;;;;;;;;24.90;99.90;;;;;;5072919;28;19909;-69
2021/08/04 13:40:24;;;;;;;;;;;24.90;99.90;;;;;;5074019;28;19912;-70
2021/08/04 13:42:49;;;;;;;;;;;24.30;99.90;;;;;;5074020;28;19921;-69
2021/08/04 13:45:16;;;;;;;;;;;24.10;99.90;;;;;;5073794;28;20337;-69
2021/08/04 13:47:42;;;;;;;;;;;23.80;99.90;;;;;;5073246;28;19927;-69
2021/08/04 13:50:09;;;;;;;;;;;23.30;99.90;;;;;;5072594;28;19943;-70
2021/08/04 13:52:34;;;;;;;;;;;23.20;99.90;;;;;;5073140;28;19928;-69
2021/08/04 13:55:00;;;;;;;;;;;22.80;99.90;;;;;;5073139;28;19965;-69
2021/08/04 13:57:26;;;;;;;;;;;22.60;99.90;;;;;;5073156;28;19913;-69
2021/08/04 13:59:51;;;;;;;;;;;22.50;99.90;;;;;;5074040;28;20003;-69
2021/08/04 14:02:17;;;;;;;;;;;22.30;99.90;;;;;;5073636;28;19913;-69
2021/08/04 14:04:42;;;;;;;;;;;22.00;99.90;;;;;;5073588;28;19912;-69
2021/08/04 14:07:08;;;;;;;;;;;21.60;99.90;;;;;;5055674;28;19917;-69
2021/08/04 14:09:33;;;;;;;;;;;21.40;99.90;;;;;;5046572;28;19909;-69
2021/08/04 14:11:59;;;;;;;;;;;21.50;99.90;;;;;;5072957;28;20047;-69
2021/08/04 14:14:24;;;;;;;;;;;21.30;99.90;;;;;;5072954;28;19966;-69
2021/08/04 14:16:50;;;;;;;;;;;21.30;99.90;;;;;;5072030;28;19931;-69
2021/08/04 14:19:15;;;;;;;;;;;21.20;99.90;;;;;;5037221;28;20266;-69
2021/08/04 14:21:42;;;;;;;;;;;21.10;99.90;;;;;;5072647;28;19962;-69